Time,TemperatureF,DewpointF,PressureIn,WindDirection,WindDirectionDegrees,WindSpeedMPH,WindSpeedGustMPH,Humidity,HourlyPrecipIn,Conditions,Clouds,dailyrainin,SolarRadiationWatts/m^2,SoftwareType,DateUTC
2013-10-13 00:03:00,45.0,42.0,-100.00,SW,235,3.0,6.0,90,0.00,,,0.02,0.000000,,2013-10-13 05:03:00,
2013-10-13 00:43:00,42.0,41.0,-100.00,SW,215,2.0,6.0,96,0.00,,,0.02,0.000000,,2013-10-13 05:43:00,
2013-10-13 00:52:00,42.0,41.0,-100.00,SW,215,2.0,6.0,96,0.00,,,0.02,0.000000,,2013-10-13 05:52:00,
2013-10-13 01:02:00,42.0,41.0,-100.00,SW,215,2.0,6.0,96,0.00,,,0.02,0.000000,,2013-10-13 06:02:00,
2013-10-13 01:42:00,43.0,42.0,-100.00,SW,230,3.0,6.0,95,0.00,,,0.02,0.000000,,2013-10-13 06:42:00,
2013-10-13 01:52:00,43.0,42.0,-100.00,SW,230,3.0,6.0,95,0.00,,,0.02,0.000000,,2013-10-13 06:52:00,
2013-10-13 02:02:00,43.0,42.0,-100.00,SW,230,3.0,6.0,95,0.00,,,0.02,0.000000,,2013-10-13 07:02:00,
2013-10-13 02:42:00,42.0,41.0,-100.00,WSW,240,3.0,6.0,96,0.00,,,0.02,0.000000,,2013-10-13 07:42:00,
2013-10-13 02:52:00,42.0,41.0,-100.00,WSW,240,3.0,6.0,96,0.00,,,0.02,0.000000,,2013-10-13 07:52:00,
2013-10-13 03:02:00,42.0,41.0,-100.00,WSW,240,3.0,6.0,96,0.00,,,0.02,0.000000,,2013-10-13 08:02:00,
2013-10-13 03:42:00,40.0,39.0,-100.00,SW,235,3.0,6.0,97,0.00,,,0.02,0.000000,,2013-10-13 08:42:00,
2013-10-13 03:52:00,40.0,39.0,-100.00,SW,235,3.0,6.0,97,0.00,,,0.02,0.000000,,2013-10-13 08:52:00,
2013-10-13 04:02:00,40.0,39.0,-100.00,SW,235,3.0,6.0,97,0.00,,,0.02,0.000000,,2013-10-13 09:02:00,
2013-10-13 04:43:00,40.0,39.0,-100.00,WSW,237,3.0,6.0,97,0.00,,,0.02,0.000000,,2013-10-13 09:43:00,
2013-10-13 04:53:00,40.0,39.0,-100.00,WSW,237,3.0,6.0,97,0.00,,,0.02,0.000000,,2013-10-13 09:53:00,
2013-10-13 05:03:00,40.0,39.0,-100.00,WSW,237,3.0,6.0,97,0.00,,,0.02,0.000000,,2013-10-13 10:03:00,
2013-10-13 05:43:00,38.0,37.0,-100.00,WSW,240,3.0,6.0,98,0.00,,,0.02,0.000000,,2013-10-13 10:43:00,
2013-10-13 05:53:00,38.0,37.0,-100.00,WSW,240,3.0,6.0,98,0.00,,,0.02,0.000000,,2013-10-13 10:53:00,
2013-10-13 06:03:00,38.0,37.0,-100.00,WSW,240,3.0,6.0,98,0.00,,,0.02,0.000000,,2013-10-13 11:03:00,
2013-10-13 06:42:00,37.0,36.0,-100.00,SW,235,3.0,4.0,98,0.00,,,0.02,0.000000,,2013-10-13 11:42:00,
2013-10-13 06:52:00,37.0,36.0,-100.00,SW,235,3.0,4.0,98,0.00,,,0.02,0.000000,,2013-10-13 11:52:00,
2013-10-13 07:01:00,37.0,36.0,-100.00,SW,235,3.0,4.0,98,0.00,,,0.02,0.000000,,2013-10-13 12:01:00,
2013-10-13 07:42:00,33.0,32.0,-100.00,SW,214,1.0,5.0,96,0.00,,,0.02,0.000000,,2013-10-13 12:42:00,
2013-10-13 07:52:00,33.0,32.0,-100.00,SW,214,1.0,5.0,96,0.00,,,0.02,0.000000,,2013-10-13 12:52:00,
2013-10-13 08:02:00,33.0,32.0,-100.00,SW,214,1.0,5.0,96,0.00,,,0.02,0.000000,,2013-10-13 13:02:00,
2013-10-13 08:42:00,33.0,32.0,-100.00,WSW,245,1.0,3.0,97,0.00,,,0.02,15.000000,,2013-10-13 13:42:00,
2013-10-13 08:52:00,33.0,32.0,-100.00,WSW,245,1.0,3.0,97,0.00,,,0.02,15.000000,,2013-10-13 13:52:00,
2013-10-13 09:02:00,33.0,32.0,-100.00,WSW,245,1.0,3.0,97,0.00,,,0.02,15.000000,,2013-10-13 14:02:00,
2013-10-13 09:42:00,43.0,40.0,-100.00,SW,235,1.0,5.0,89,0.00,,,0.02,153.000000,,2013-10-13 14:42:00,
2013-10-13 09:52:00,43.0,40.0,-100.00,SW,235,1.0,5.0,89,0.00,,,0.02,153.000000,,2013-10-13 14:52:00,
2013-10-13 10:01:00,43.0,40.0,-100.00,SW,235,1.0,5.0,89,0.00,,,0.02,153.000000,,2013-10-13 15:01:00,
2013-10-13 10:43:00,49.0,42.0,-100.00,WNW,302,3.0,8.0,77,0.00,,,0.02,306.000000,,2013-10-13 15:43:00,
2013-10-13 10:54:00,49.0,42.0,-100.00,WNW,302,3.0,8.0,77,0.00,,,0.02,306.000000,,2013-10-13 15:54:00,
2013-10-13 11:03:00,49.0,42.0,-100.00,WNW,302,3.0,8.0,77,0.00,,,0.02,306.000000,,2013-10-13 16:03:00,
2013-10-13 11:43:00,55.0,36.0,-100.00,NW,315,2.0,7.0,49,0.00,,,0.02,430.000000,,2013-10-13 16:43:00,
2013-10-13 11:54:00,55.0,36.0,-100.00,NW,315,2.0,7.0,49,0.00,,,0.02,430.000000,,2013-10-13 16:54:00,
2013-10-13 12:03:00,55.0,36.0,-100.00,NW,315,2.0,7.0,49,0.00,,,0.02,430.000000,,2013-10-13 17:03:00,
2013-10-13 12:43:00,57.0,32.0,-100.00,WNW,284,5.0,10.0,39,0.00,,,0.02,532.000000,,2013-10-13 17:43:00,
2013-10-13 12:52:00,57.0,32.0,-100.00,WNW,284,5.0,10.0,39,0.00,,,0.02,532.000000,,2013-10-13 17:52:00,
2013-10-13 13:02:00,57.0,32.0,-100.00,WNW,284,5.0,10.0,39,0.00,,,0.02,532.000000,,2013-10-13 18:02:00,
2013-10-13 13:42:00,58.0,33.0,-100.00,West,273,5.0,12.0,39,0.00,,,0.02,596.000000,,2013-10-13 18:42:00,
2013-10-13 13:52:00,58.0,33.0,-100.00,West,273,5.0,12.0,39,0.00,,,0.02,596.000000,,2013-10-13 18:52:00,
2013-10-13 14:02:00,58.0,33.0,-100.00,West,273,5.0,12.0,39,0.00,,,0.02,596.000000,,2013-10-13 19:02:00,
2013-10-13 14:42:00,58.0,33.0,-100.00,WNW,292,4.0,14.0,38,0.00,,,0.02,465.000000,,2013-10-13 19:42:00,
2013-10-13 14:53:00,58.0,33.0,-100.00,WNW,292,4.0,14.0,38,0.00,,,0.02,465.000000,,2013-10-13 19:53:00,
2013-10-13 15:02:00,58.0,33.0,-100.00,WNW,292,4.0,14.0,38,0.00,,,0.02,465.000000,,2013-10-13 20:02:00,
2013-10-13 15:43:00,60.0,32.0,-100.00,NW,305,5.0,11.0,35,0.00,,,0.02,534.000000,,2013-10-13 20:43:00,
2013-10-13 15:52:00,60.0,32.0,-100.00,NW,305,5.0,11.0,35,0.00,,,0.02,534.000000,,2013-10-13 20:52:00,
2013-10-13 16:02:00,60.0,32.0,-100.00,NW,305,5.0,11.0,35,0.00,,,0.02,534.000000,,2013-10-13 21:02:00,
2013-10-13 16:44:00,60.0,31.0,-100.00,NW,306,4.0,13.0,33,0.00,,,0.02,428.000000,,2013-10-13 21:44:00,
2013-10-13 16:55:00,60.0,31.0,-100.00,NW,306,4.0,13.0,33,0.00,,,0.02,428.000000,,2013-10-13 21:55:00,
2013-10-13 17:03:00,60.0,31.0,-100.00,NW,306,4.0,13.0,33,0.00,,,0.02,428.000000,,2013-10-13 22:03:00,
2013-10-13 17:43:00,60.0,32.0,-100.00,WNW,287,2.0,11.0,34,0.00,,,0.01,287.000000,,2013-10-13 22:43:00,
2013-10-13 17:53:00,60.0,32.0,-100.00,WNW,287,2.0,11.0,34,0.00,,,0.01,287.000000,,2013-10-13 22:53:00,
2013-10-13 18:03:00,60.0,32.0,-100.00,WNW,287,2.0,11.0,34,0.00,,,0.01,287.000000,,2013-10-13 23:03:00,
2013-10-13 18:42:00,55.0,35.0,-100.00,SW,222,0.0,8.0,47,0.00,,,0.01,116.000000,,2013-10-13 23:42:00,
2013-10-13 18:52:00,55.0,35.0,-100.00,SW,222,0.0,8.0,47,0.00,,,0.01,116.000000,,2013-10-13 23:52:00,
2013-10-13 19:01:00,55.0,35.0,-100.00,SW,222,0.0,8.0,47,0.00,,,0.01,116.000000,,2013-10-14 00:01:00,
2013-10-13 19:52:00,43.0,35.0,-100.00,SW,219,0.0,1.0,72,0.00,,,0.00,4.000000,,2013-10-14 00:52:00,
2013-10-13 20:02:00,43.0,35.0,-100.00,SW,219,0.0,1.0,72,0.00,,,0.00,4.000000,,2013-10-14 01:02:00,
2013-10-13 20:42:00,38.0,34.0,-100.00,SW,219,0.0,0.0,84,0.00,,,0.00,0.000000,,2013-10-14 01:42:00,
2013-10-13 20:52:00,38.0,34.0,-100.00,SW,219,0.0,0.0,84,0.00,,,0.00,0.000000,,2013-10-14 01:52:00,
2013-10-13 21:02:00,38.0,34.0,-100.00,SW,219,0.0,0.0,84,0.00,,,0.00,0.000000,,2013-10-14 02:02:00,
2013-10-13 21:42:00,35.0,33.0,-100.00,SW,219,0.0,0.0,92,0.00,,,0.00,0.000000,,2013-10-14 02:42:00,
2013-10-13 21:52:00,35.0,33.0,-100.00,SW,219,0.0,0.0,92,0.00,,,0.00,0.000000,,2013-10-14 02:52:00,
2013-10-13 22:02:00,35.0,33.0,-100.00,SW,219,0.0,0.0,92,0.00,,,0.00,0.000000,,2013-10-14 03:02:00,
2013-10-13 22:44:00,34.0,32.0,-100.00,ESE,114,0.0,1.0,93,0.00,,,0.00,0.000000,,2013-10-14 03:44:00,
2013-10-13 22:55:00,34.0,32.0,-100.00,ESE,114,0.0,1.0,93,0.00,,,0.00,0.000000,,2013-10-14 03:55:00,
2013-10-13 23:04:00,34.0,32.0,-100.00,ESE,114,0.0,1.0,93,0.00,,,0.00,0.000000,,2013-10-14 04:04:00,
2013-10-13 23:44:00,33.0,31.0,-100.00,ESE,114,0.0,0.0,91,0.00,,,0.00,0.000000,,2013-10-14 04:44:00,
2013-10-13 23:54:00,33.0,31.0,-100.00,ESE,114,0.0,0.0,91,0.00,,,0.00,0.000000,,2013-10-14 04:54:00,